Vonore, TN

1:39 PM EDT on September 21, 2014 (GMT -0400)
McGhee Tyson | Change Station
CLOSE
Current Station
Airport
Location: Knoxville,
Elevation: 981 ft
Nearby Weather Stations

Elev 981 ft 35.82 °N, 83.99 °W | Updated 46 minutes ago

Overcast
Overcast
81 °F
Feels Like 82 °F
N
15
Wind Variable Wind from WSW
Gusts 23 mph

Today
High -- | Low -- °F
--% Chance of Precip.
Yesterday
High -- | Low -- °F
Precip. -- in
7:23 AM 7:34 PM
Waning Crescent, 6% visible
Pressure 29.95 in
Visibility 10.0 miles
Clouds Mostly Cloudy 3600 ft
Heat Index 82 °F
Dew Point 64 °F
Humidity 56%
Rainfall 0.00 in
Snow Depth Not available.
UV 4 out of 12
Pollen 6.60 out of 12
Air Quality Not available.
Flu Activity Not available.
METAR KTYS 211653Z 25013G20KT 10SM BKN036 27/18 A2998 RMK AO2 SLP142 T02720178

More Conditions Fewer Conditions

Pressure 29.95 in
Visibility 10.0 miles
Clouds Mostly Cloudy 3600 ft
Heat Index 82 °F
Dew Point 64 °F
Humidity 56%
Rainfall 0.00 in
Snow Depth Not available.
UV 4 out of 12
Pollen 6.60 out of 12
Air Quality Not available.
Flu Activity Not available.
METAR KTYS 211653Z 25013G20KT 10SM BKN036 27/18 A2998 RMK AO2 SLP142 T02720178

More Conditions Fewer Conditions

10-Day Weather Forecast

Almanac

Astronomy

Sep. 21, 2014 Rise Set
Actual Time 7:23 AM EDT 7:34 PM EDT
Civil Twilight 6:58 AM EDT 8:00 PM EDT
Nautical Twilight 6:28 AM EDT 8:29 PM EDT
Astronomical Twilight 5:58 AM EDT 8:59 PM EDT
Moon 5:00 AM EDT 6:07 PM EDT
Length of Visible Light 13h 01m
Length of Day
12h 11m
Tomorrow will be 2m 14s shorter.
Waning Crescent, 6% of the Moon is Illuminated
Today
Waning Crescent
Sep 24
New
Oct 1
First Quarter
Oct 8
Full
Oct 15
Last Quarter

Today's Extremes

State Highs State Lows

Community

WunderPhotos

Upload Photos

1,755,199 photos uploaded!

WunderBlogs® & News

Nearby

Snow Depth

Station Depth Elevation
No new snow has been reported.

Earthquake Activity

City Distance Mag. Time & Date
Sweetwater, Tennessee 21 miles 2.5 3:54 PM EDT
2014-09-20
Minimum magnitude displayed is 2.5.

Coastal Water Temperatures

Place Temperature
No Stations Reporting

Nearby Weather Stations